Time;durP1;ratioP1;P1;durP2;ratioP2;P2;SDS_P1;SDS_P2;PMS_P1;PMS_P2;Temp;Humidity;BMP_temperature;BMP_pressure;BME280_temperature;BME280_humidity;BME280_pressure;Samples;Min_cycle;Max_cycle;Signal;HPM_P1;HPM_P2
2023/06/17 00:02:12;;;;;;;19.08;12.07;;;17.30;99.90;;;;;;4955901;28;20024;-77
2023/06/17 00:04:38;;;;;;;24.50;12.27;;;17.40;99.90;;;;;;4955849;28;20026;-77
2023/06/17 00:07:04;;;;;;;20.40;12.25;;;17.40;99.90;;;;;;4954689;28;20046;-77
2023/06/17 00:09:30;;;;;;;22.77;13.55;;;17.30;99.90;;;;;;4955587;28;20495;-76
2023/06/17 00:11:56;;;;;;;24.00;13.23;;;17.30;99.90;;;;;;4955531;28;20105;-77
2023/06/17 00:14:23;;;;;;;20.20;13.65;;;17.30;99.90;;;;;;4955423;29;20122;-76
2023/06/17 00:16:49;;;;;;;20.83;13.10;;;17.30;99.90;;;;;;4955694;28;20129;-76
2023/06/17 00:19:15;;;;;;;24.92;14.10;;;17.20;99.90;;;;;;4955690;28;20118;-77
2023/06/17 00:21:49;;;;;;;21.42;13.15;;;17.20;99.90;;;;;;4955162;28;20055;-77
2023/06/17 00:24:16;;;;;;;21.15;14.18;;;17.20;99.90;;;;;;4955289;28;20050;-77
2023/06/17 00:26:42;;;;;;;20.85;13.75;;;17.10;99.90;;;;;;4955342;28;20031;-76
2023/06/17 00:29:09;;;;;;;23.17;14.20;;;17.10;99.90;;;;;;4955629;28;20027;-77
2023/06/17 00:31:35;;;;;;;20.50;14.52;;;17.10;99.90;;;;;;4955450;28;20051;-77
2023/06/17 00:34:01;;;;;;;27.67;14.95;;;17.10;99.90;;;;;;4954969;29;20081;-77
2023/06/17 00:36:26;;;;;;;21.88;15.10;;;17.10;99.90;;;;;;4938096;28;20023;-77
2023/06/17 00:38:53;;;;;;;25.95;13.60;;;17.00;99.90;;;;;;4954668;28;20051;-77
2023/06/17 00:41:19;;;;;;;25.08;13.85;;;17.10;99.90;;;;;;4937613;28;20495;-76
2023/06/17 00:43:45;;;;;;;22.38;14.13;;;17.10;99.90;;;;;;4955042;28;20023;-77
2023/06/17 00:46:25;;;;;;;20.95;13.30;;;17.10;99.90;;;;;;4954939;28;20031;-77
2023/06/17 00:48:51;;;;;;;26.92;16.88;;;17.20;99.90;;;;;;4937951;28;20114;-77
2023/06/17 00:51:17;;;;;;;25.88;14.25;;;17.20;99.90;;;;;;4963676;28;20106;-76
2023/06/17 00:53:45;;;;;;;20.98;14.10;;;17.20;99.90;;;;;;4957196;28;20491;-77
2023/06/17 00:56:10;;;;;;;23.73;14.52;;;17.20;99.90;;;;;;4937574;29;20034;-77
2023/06/17 00:58:37;;;;;;;20.08;14.13;;;17.20;99.90;;;;;;4953583;29;20054;-77
2023/06/17 01:01:03;;;;;;;25.17;13.38;;;17.10;99.90;;;;;;4954680;28;20031;-77
2023/06/17 01:03:29;;;;;;;25.42;13.27;;;17.10;99.90;;;;;;4954716;28;20019;-76
2023/06/17 01:05:59;;;;;;;25.98;16.20;;;17.20;99.90;;;;;;4937492;29;20070;-77
2023/06/17 01:08:52;;;;;;;23.20;14.77;;;17.20;99.90;;;;;;4953668;28;20106;-77
2023/06/17 01:11:21;;;;;;;26.85;15.43;;;17.20;99.90;;;;;;4954264;28;20038;-77
2023/06/17 01:13:50;;;;;;;25.50;15.23;;;17.20;99.90;;;;;;4937116;29;20479;-77
2023/06/17 01:16:17;;;;;;;25.67;16.65;;;17.10;99.90;;;;;;4954490;28;20054;-76
2023/06/17 01:18:48;;;;;;;24.10;15.00;;;17.10;99.90;;;;;;4954592;28;20030;-77
2023/06/17 01:21:17;;;;;;;21.48;14.77;;;17.10;99.90;;;;;;4936944;28;20114;-77
2023/06/17 01:23:44;;;;;;;25.23;14.95;;;17.10;99.90;;;;;;4954427;28;20519;-77
2023/06/17 01:26:10;;;;;;;24.63;15.43;;;17.00;99.90;;;;;;4954329;28;20039;-77
2023/06/17 01:28:40;;;;;;;28.38;15.40;;;17.10;99.90;;;;;;4937001;29;20082;-77
2023/06/17 01:31:07;;;;;;;26.90;15.65;;;17.00;99.90;;;;;;4937053;29;20042;-77
2023/06/17 01:33:34;;;;;;;22.15;14.48;;;17.10;99.90;;;;;;4954194;28;20023;-76
2023/06/17 01:36:10;;;;;;;25.33;15.40;;;17.10;99.90;;;;;;4954174;28;20035;-77
2023/06/17 01:38:55;;;;;;;23.17;15.82;;;17.20;99.90;;;;;;4953896;29;20349;-77
2023/06/17 01:41:29;;;;;;;26.20;15.38;;;17.20;99.90;;;;;;4936867;29;20558;-76
2023/06/17 01:43:57;;;;;;;24.98;15.20;;;17.20;99.90;;;;;;4936898;28;20034;-76
2023/06/17 01:46:24;;;;;;;24.63;15.25;;;17.20;99.90;;;;;;4936392;29;20031;-77
2023/06/17 01:48:56;;;;;;;29.85;15.25;;;17.10;99.90;;;;;;4936970;28;20070;-77
2023/06/17 01:51:22;;;;;;;22.37;15.20;;;17.10;99.90;;;;;;4954030;28;20031;-77
2023/06/17 01:53:48;;;;;;;27.13;14.65;;;17.10;99.90;;;;;;4936705;29;20280;-77
2023/06/17 01:56:14;;;;;;;27.70;15.38;;;17.10;99.90;;;;;;4920862;29;20054;-77
2023/06/17 01:58:40;;;;;;;28.17;15.68;;;17.10;99.90;;;;;;4952379;28;20105;-77
2023/06/17 02:01:06;;;;;;;23.50;14.75;;;17.10;99.90;;;;;;4952854;29;20100;-76
2023/06/17 02:03:32;;;;;;;26.20;13.98;;;17.10;99.90;;;;;;4953521;28;20023;-76
2023/06/17 02:05:58;;;;;;;21.05;13.68;;;17.10;99.90;;;;;;4954125;28;20082;-77
2023/06/17 02:08:24;;;;;;;20.55;14.18;;;17.10;99.90;;;;;;4936208;29;20039;-76
2023/06/17 02:10:51;;;;;;;22.45;15.25;;;17.20;99.90;;;;;;4936711;29;20050;-77
2023/06/17 02:13:17;;;;;;;24.98;15.48;;;17.20;99.90;;;;;;4935915;29;20039;-77
2023/06/17 02:15:43;;;;;;;25.35;15.60;;;17.20;99.90;;;;;;4952384;28;20430;-77
2023/06/17 02:18:12;;;;;;;24.17;14.15;;;17.20;99.90;;;;;;4939015;29;20023;-77
2023/06/17 02:20:38;;;;;;;22.77;16.02;;;17.20;99.90;;;;;;4956550;29;20035;-77
2023/06/17 02:23:05;;;;;;;21.35;13.60;;;17.20;99.90;;;;;;4957644;28;20046;-77
2023/06/17 02:25:31;;;;;;;20.20;13.30;;;17.20;99.90;;;;;;4956299;29;20063;-77
2023/06/17 02:27:58;;;;;;;24.42;15.85;;;17.20;99.90;;;;;;4956331;29;20016;-77
2023/06/17 02:30:24;;;;;;;21.60;13.38;;;17.10;99.90;;;;;;4956111;28;20049;-77
2023/06/17 02:32:50;;;;;;;21.67;13.75;;;17.20;99.90;;;;;;4956192;29;20019;-76
2023/06/17 02:35:19;;;;;;;24.00;14.70;;;17.10;99.90;;;;;;4957251;29;20081;-77
2023/06/17 02:37:45;;;;;;;20.02;13.77;;;17.10;99.90;;;;;;4957413;28;20475;-77
2023/06/17 02:40:11;;;;;;;25.33;14.20;;;17.10;99.90;;;;;;4957308;28;20039;-77
2023/06/17 02:42:37;;;;;;;21.00;13.70;;;17.10;99.90;;;;;;4940043;29;20542;-77
2023/06/17 02:45:04;;;;;;;27.35;14.32;;;17.00;99.90;;;;;;4939217;29;20479;-77
2023/06/17 02:47:30;;;;;;;20.42;14.02;;;17.00;99.90;;;;;;4949395;28;20480;-77
2023/06/17 02:49:56;;;;;;;22.30;14.57;;;17.00;99.90;;;;;;4940120;29;20034;-76
2023/06/17 02:52:22;;;;;;;22.60;14.52;;;16.90;99.90;;;;;;4956453;28;20031;-77
2023/06/17 02:54:50;;;;;;;25.27;16.35;;;16.90;99.90;;;;;;4939613;29;20062;-76
2023/06/17 02:57:18;;;;;;;28.92;15.93;;;16.90;99.90;;;;;;4939673;29;20070;-77
2023/06/17 02:59:44;;;;;;;19.70;14.30;;;17.00;99.90;;;;;;4955368;28;20046;-77
2023/06/17 03:02:10;;;;;;;24.17;15.70;;;16.90;99.90;;;;;;4956923;28;20027;-76
2023/06/17 03:04:36;;;;;;;23.92;14.48;;;17.00;99.90;;;;;;4955412;29;20038;-77
2023/06/17 03:07:05;;;;;;;25.23;15.40;;;16.90;99.90;;;;;;4938640;29;20097;-76
2023/06/17 03:09:31;;;;;;;22.88;13.60;;;16.90;99.90;;;;;;4959538;28;20043;-77
2023/06/17 03:12:02;;;;;;;23.77;14.32;;;16.90;99.90;;;;;;4966969;28;20050;-77
2023/06/17 03:14:29;;;;;;;26.63;14.50;;;16.90;99.90;;;;;;4944294;28;20035;-77
2023/06/17 03:16:59;;;;;;;20.73;14.10;;;16.90;99.90;;;;;;4939354;28;20024;-76
2023/06/17 03:19:26;;;;;;;21.67;14.05;;;17.00;99.90;;;;;;4939331;29;20027;-77
2023/06/17 03:21:53;;;;;;;22.45;15.60;;;16.90;99.90;;;;;;4955434;28;20029;-77
2023/06/17 03:24:21;;;;;;;23.50;15.48;;;16.90;99.90;;;;;;4939205;29;20436;-77
2023/06/17 03:26:47;;;;;;;27.92;15.02;;;16.90;99.90;;;;;;4954976;28;20130;-77
2023/06/17 03:29:13;;;;;;;25.20;15.95;;;16.90;99.90;;;;;;4956344;28;20102;-76
2023/06/17 03:31:40;;;;;;;20.73;13.30;;;16.90;99.90;;;;;;4971323;28;20424;-76
2023/06/17 03:34:07;;;;;;;27.75;15.98;;;16.80;99.90;;;;;;4939377;29;20472;-77
2023/06/17 03:36:34;;;;;;;20.88;14.25;;;16.80;99.90;;;;;;4951683;28;20059;-77
2023/06/17 03:38:59;;;;;;;20.58;14.82;;;16.90;99.90;;;;;;4945039;29;20055;-76
2023/06/17 03:41:30;;;;;;;21.85;15.25;;;16.90;99.90;;;;;;4954841;28;20039;-76
2023/06/17 03:43:56;;;;;;;23.42;14.63;;;16.90;99.90;;;;;;4956341;28;20172;-76
2023/06/17 03:46:22;;;;;;;22.00;13.88;;;16.80;99.90;;;;;;4939126;29;20027;-76
2023/06/17 03:48:48;;;;;;;23.15;15.23;;;16.90;99.90;;;;;;4938860;28;20031;-76
2023/06/17 03:51:14;;;;;;;22.50;13.80;;;16.90;99.90;;;;;;4956545;28;20086;-77
2023/06/17 03:53:40;;;;;;;21.88;14.73;;;16.90;99.90;;;;;;4938104;28;20122;-76
2023/06/17 03:56:07;;;;;;;20.02;12.82;;;16.90;99.90;;;;;;4938972;29;20027;-77
2023/06/17 03:58:33;;;;;;;24.17;14.68;;;16.90;99.90;;;;;;4954404;28;20031;-76
2023/06/17 04:00:58;;;;;;;22.77;14.85;;;16.90;99.90;;;;;;4956059;28;20027;-77
2023/06/17 04:03:26;;;;;;;21.05;13.15;;;16.90;99.90;;;;;;4955720;28;20090;-75
2023/06/17 04:05:52;;;;;;;21.50;13.98;;;17.00;99.90;;;;;;4938519;29;20467;-76
2023/06/17 04:08:19;;;;;;;21.10;13.05;;;17.10;99.90;;;;;;4955674;29;20139;-76
2023/06/17 04:10:47;;;;;;;18.50;13.05;;;17.10;99.90;;;;;;4938845;29;20042;-76
2023/06/17 04:13:14;;;;;;;18.67;12.25;;;17.00;99.90;;;;;;4955758;28;20055;-76
2023/06/17 04:15:41;;;;;;;21.98;13.32;;;17.00;99.90;;;;;;4955437;29;20027;-76
2023/06/17 04:18:07;;;;;;;24.67;13.10;;;17.00;99.90;;;;;;4949549;29;20027;-76
2023/06/17 04:20:36;;;;;;;22.77;13.73;;;17.00;99.90;;;;;;4955569;28;20035;-75
2023/06/17 04:23:02;;;;;;;17.92;12.77;;;17.00;99.90;;;;;;4938386;29;20027;-76
2023/06/17 04:25:32;;;;;;;21.80;13.57;;;17.00;99.90;;;;;;4937794;29;20042;-77
2023/06/17 04:28:01;;;;;;;22.05;13.48;;;17.00;99.90;;;;;;4951217;28;20028;-76
2023/06/17 04:30:32;;;;;;;25.05;14.25;;;17.00;99.90;;;;;;4938183;29;20030;-74
2023/06/17 04:33:00;;;;;;;20.67;14.15;;;17.00;99.90;;;;;;4954104;28;20039;-76
2023/06/17 04:35:27;;;;;;;22.98;13.82;;;17.00;99.90;;;;;;4954262;28;20167;-75
2023/06/17 04:37:53;;;;;;;19.42;12.82;;;17.00;99.90;;;;;;4937929;29;20031;-76
2023/06/17 04:40:24;;;;;;;22.85;13.75;;;17.10;99.90;;;;;;4953266;28;20407;-76
2023/06/17 04:42:50;;;;;;;25.58;13.32;;;17.10;99.90;;;;;;4955347;29;20407;-76
2023/06/17 04:45:17;;;;;;;21.70;12.93;;;17.10;99.90;;;;;;4938214;29;20117;-76
2023/06/17 04:47:45;;;;;;;21.10;13.93;;;17.10;99.90;;;;;;4953810;29;20019;-76
2023/06/17 04:50:16;;;;;;;20.00;11.70;;;17.10;99.90;;;;;;4954682;28;20051;-76
2023/06/17 04:52:47;;;;;;;21.70;12.82;;;17.10;99.90;;;;;;4937461;29;20386;-76
2023/06/17 04:55:15;;;;;;;23.63;13.02;;;17.20;99.90;;;;;;4937545;29;20035;-77
2023/06/17 04:57:42;;;;;;;24.45;13.23;;;17.30;99.90;;;;;;4955149;28;20024;-77
2023/06/17 05:00:10;;;;;;;21.98;11.82;;;17.20;99.90;;;;;;4937524;29;20055;-76
2023/06/17 05:02:38;;;;;;;20.50;12.95;;;17.30;99.90;;;;;;4953591;29;20020;-76
2023/06/17 05:05:05;;;;;;;22.02;11.57;;;17.20;99.90;;;;;;4937179;29;20027;-77
2023/06/17 05:07:36;;;;;;;20.50;11.38;;;17.20;99.90;;;;;;4937206;29;20098;-77
2023/06/17 05:10:03;;;;;;;18.60;10.65;;;17.20;99.90;;;;;;4937039;29;20032;-76
2023/06/17 05:12:31;;;;;;;18.92;11.07;;;17.20;99.90;;;;;;4945671;29;20042;-76
2023/06/17 05:14:57;;;;;;;16.65;11.98;;;17.20;99.90;;;;;;4937536;28;20059;-76
2023/06/17 05:17:23;;;;;;;16.05;10.80;;;17.20;99.90;;;;;;4964729;28;20521;-73
2023/06/17 05:19:49;;;;;;;16.70;10.60;;;17.20;99.90;;;;;;4961313;28;20043;-75
2023/06/17 05:22:15;;;;;;;15.23;10.43;;;17.20;99.90;;;;;;4938066;29;20396;-74
2023/06/17 05:24:41;;;;;;;16.05;10.15;;;17.20;99.90;;;;;;4938106;28;20122;-75
2023/06/17 05:27:08;;;;;;;18.45;10.63;;;17.10;99.90;;;;;;4953150;28;20031;-75
2023/06/17 05:29:34;;;;;;;16.05;9.93;;;17.10;99.90;;;;;;4954390;28;20491;-76
2023/06/17 05:32:01;;;;;;;16.13;9.50;;;17.10;99.90;;;;;;4969979;28;20062;-75
2023/06/17 05:34:28;;;;;;;16.85;9.95;;;17.10;99.90;;;;;;4937461;29;20506;-76
2023/06/17 05:36:53;;;;;;;17.58;10.48;;;17.10;99.90;;;;;;4931991;28;20031;-76
2023/06/17 05:39:21;;;;;;;23.85;10.27;;;17.00;99.90;;;;;;4934833;29;20040;-76
2023/06/17 05:41:47;;;;;;;18.73;10.10;;;17.10;99.90;;;;;;4933494;29;20476;-76
2023/06/17 05:44:15;;;;;;;16.77;9.57;;;17.10;99.90;;;;;;4939678;28;20387;-77
2023/06/17 05:46:41;;;;;;;16.58;9.82;;;17.00;99.90;;;;;;4934614;29;20046;-75
2023/06/17 05:49:07;;;;;;;15.25;9.70;;;16.90;99.90;;;;;;4955031;28;20028;-76
2023/06/17 05:51:33;;;;;;;14.68;9.85;;;16.90;99.90;;;;;;4937712;29;20126;-76
2023/06/17 05:53:59;;;;;;;18.70;10.23;;;16.90;99.90;;;;;;4936669;29;20399;-77
2023/06/17 05:56:26;;;;;;;17.52;9.43;;;16.90;99.90;;;;;;4955555;28;20038;-75
2023/06/17 05:58:51;;;;;;;29.25;9.45;;;17.00;99.90;;;;;;4953682;28;20035;-76
2023/06/17 06:01:32;;;;;;;16.85;9.55;;;17.00;99.90;;;;;;4943928;28;20035;-76
2023/06/17 06:03:58;;;;;;;15.27;9.90;;;16.90;99.90;;;;;;4953235;29;20530;-75
2023/06/17 06:06:24;;;;;;;16.58;9.13;;;16.90;99.90;;;;;;4937669;29;20098;-76
2023/06/17 06:08:50;;;;;;;15.80;9.38;;;16.90;99.90;;;;;;4953195;28;20058;-77
2023/06/17 06:11:16;;;;;;;14.93;8.75;;;16.90;99.90;;;;;;4954466;28;20383;-76
2023/06/17 06:13:42;;;;;;;16.75;10.55;;;17.10;99.90;;;;;;4952871;28;20427;-76
2023/06/17 06:16:08;;;;;;;17.25;9.43;;;17.10;99.90;;;;;;4950771;28;20027;-76
2023/06/17 06:18:34;;;;;;;13.95;8.95;;;17.20;99.90;;;;;;4959106;28;20054;-75
2023/06/17 06:21:00;;;;;;;16.88;9.27;;;17.20;99.90;;;;;;4958739;28;20487;-75
2023/06/17 06:23:26;;;;;;;16.63;9.63;;;17.20;99.90;;;;;;4936439;28;20388;-77
2023/06/17 06:25:52;;;;;;;15.35;8.80;;;17.20;99.90;;;;;;4937020;29;20090;-76
2023/06/17 06:28:18;;;;;;;14.07;9.00;;;17.20;99.90;;;;;;4954555;28;20031;-77
2023/06/17 06:30:44;;;;;;;18.27;9.00;;;17.30;99.90;;;;;;4940913;29;20136;-76
2023/06/17 06:33:10;;;;;;;15.98;9.88;;;17.30;99.90;;;;;;4921368;28;20134;-77
2023/06/17 06:35:36;;;;;;;16.58;9.95;;;17.40;99.90;;;;;;4933656;29;20034;-74
2023/06/17 06:38:03;;;;;;;15.82;10.02;;;17.30;99.90;;;;;;4933008;29;20395;-77
2023/06/17 06:40:29;;;;;;;20.02;9.43;;;17.50;99.90;;;;;;4955381;28;20039;-75
2023/06/17 06:42:55;;;;;;;17.95;9.30;;;17.40;99.90;;;;;;4960821;28;20070;-77
2023/06/17 06:45:29;;;;;;;16.48;9.50;;;17.40;99.90;;;;;;4938971;28;20050;-76
2023/06/17 06:47:55;;;;;;;15.70;9.30;;;17.40;99.90;;;;;;4943329;28;20043;-76
2023/06/17 06:50:21;;;;;;;15.85;8.75;;;17.60;99.90;;;;;;4952049;28;20162;-77
2023/06/17 06:52:50;;;;;;;15.05;9.55;;;17.50;99.90;;;;;;4952757;28;20114;-76
2023/06/17 06:55:16;;;;;;;17.10;8.93;;;17.50;99.90;;;;;;4946286;29;20126;-78
2023/06/17 06:57:44;;;;;;;15.18;9.10;;;17.50;99.90;;;;;;4937644;28;20078;-77
2023/06/17 07:00:12;;;;;;;13.00;8.50;;;17.60;99.90;;;;;;4938207;29;20037;-77
2023/06/17 07:02:38;;;;;;;16.55;9.10;;;17.70;99.90;;;;;;4936350;29;20487;-76
2023/06/17 07:05:04;;;;;;;11.23;7.45;;;17.70;99.90;;;;;;4938765;28;20079;-75
2023/06/17 07:07:37;;;;;;;12.23;8.60;;;17.80;99.90;;;;;;4925854;28;20074;-76
2023/06/17 07:10:05;;;;;;;12.88;7.45;;;17.80;99.90;;;;;;4940755;29;20134;-76
2023/06/17 07:12:31;;;;;;;13.82;8.75;;;17.90;99.90;;;;;;4946961;28;20491;-76
2023/06/17 07:14:58;;;;;;;15.77;8.20;;;18.00;99.90;;;;;;4962441;28;20107;-76
2023/06/17 07:17:24;;;;;;;14.43;8.30;;;18.10;99.90;;;;;;4964468;28;20027;-74
2023/06/17 07:19:50;;;;;;;12.32;7.97;;;18.20;99.90;;;;;;4942331;28;20099;-77
2023/06/17 07:22:16;;;;;;;13.70;8.10;;;18.00;99.90;;;;;;4954929;29;20134;-79
2023/06/17 07:24:42;;;;;;;12.38;8.02;;;18.00;99.90;;;;;;4949301;29;20079;-78
2023/06/17 07:27:07;;;;;;;13.55;7.78;;;17.90;99.90;;;;;;4949042;29;20419;-77
2023/06/17 07:29:34;;;;;;;12.77;7.85;;;17.90;99.90;;;;;;4938990;29;20107;-78
2023/06/17 07:32:00;;;;;;;13.55;8.02;;;18.00;99.90;;;;;;4955321;29;20031;-78
2023/06/17 07:34:26;;;;;;;11.85;7.55;;;17.90;99.90;;;;;;4938902;29;20027;-78
2023/06/17 07:36:52;;;;;;;13.40;7.68;;;18.10;99.90;;;;;;4955188;28;20502;-78
2023/06/17 07:39:21;;;;;;;12.77;6.53;;;18.10;99.90;;;;;;4955877;28;20118;-76
2023/06/17 07:41:47;;;;;;;15.88;7.65;;;18.10;99.90;;;;;;4956133;28;20456;-77
2023/06/17 07:44:13;;;;;;;12.43;7.53;;;18.10;99.90;;;;;;4955781;28;20031;-76
2023/06/17 07:46:38;;;;;;;12.50;7.45;;;18.10;99.90;;;;;;4955794;28;20027;-76
2023/06/17 07:49:04;;;;;;;19.48;7.93;;;18.20;99.90;;;;;;4945277;28;20070;-77
2023/06/17 07:51:30;;;;;;;11.90;6.53;;;18.30;99.90;;;;;;4955924;28;20027;-79
2023/06/17 07:53:56;;;;;;;12.23;7.18;;;18.40;99.90;;;;;;4955829;28;20475;-78
2023/06/17 07:56:25;;;;;;;14.43;7.68;;;18.40;99.90;;;;;;4956025;28;20035;-78
2023/06/17 07:58:50;;;;;;;15.38;7.00;;;18.50;99.90;;;;;;4958418;28;20542;-77
2023/06/17 08:01:16;;;;;;;10.25;6.55;;;18.80;99.90;;;;;;4953019;28;20118;-78
2023/06/17 08:03:42;;;;;;;17.42;6.70;;;18.90;99.90;;;;;;4952722;28;20372;-77
2023/06/17 08:06:13;;;;;;;10.43;6.65;;;18.90;99.90;;;;;;4955838;28;20360;-78
2023/06/17 08:08:43;;;;;;;10.93;6.63;;;18.90;99.90;;;;;;4955327;28;20570;-76
2023/06/17 08:11:09;;;;;;;12.30;7.15;;;18.90;99.90;;;;;;4955802;28;20035;-78
2023/06/17 08:13:34;;;;;;;12.32;7.18;;;18.90;99.90;;;;;;4955417;28;20391;-78
2023/06/17 08:16:01;;;;;;;15.07;8.10;;;19.00;99.90;;;;;;4955062;28;20023;-78
2023/06/17 08:18:27;;;;;;;11.20;7.00;;;18.90;99.90;;;;;;4955438;28;20027;-78
2023/06/17 08:20:52;;;;;;;11.25;7.03;;;19.00;99.90;;;;;;4955590;29;20051;-78
2023/06/17 08:23:18;;;;;;;10.80;5.85;;;19.10;99.90;;;;;;4955210;28;20037;-77
2023/06/17 08:25:45;;;;;;;11.57;7.05;;;19.20;99.90;;;;;;4955694;28;20383;-77
2023/06/17 08:28:11;;;;;;;16.10;7.78;;;19.20;99.90;;;;;;4955131;28;20040;-78
2023/06/17 08:30:37;;;;;;;13.55;7.40;;;19.40;99.90;;;;;;4955340;29;20033;-78
2023/06/17 08:33:03;;;;;;;11.07;6.38;;;19.60;99.90;;;;;;4955041;28;20031;-78
2023/06/17 08:35:29;;;;;;;9.48;6.25;;;19.70;99.90;;;;;;4955173;28;20502;-77
2023/06/17 08:37:55;;;;;;;9.30;5.97;;;19.70;99.90;;;;;;4955400;28;20103;-78
2023/06/17 08:40:22;;;;;;;12.50;7.63;;;19.90;99.90;;;;;;4937844;29;20511;-78
2023/06/17 08:42:55;;;;;;;13.63;6.68;;;19.90;99.90;;;;;;4955336;28;20435;-77
2023/06/17 08:45:23;;;;;;;10.27;6.63;;;19.90;99.90;;;;;;4955009;28;20023;-77
2023/06/17 08:47:48;;;;;;;12.75;7.28;;;20.00;99.90;;;;;;4954938;28;20015;-78
2023/06/17 08:50:15;;;;;;;13.00;5.93;;;20.10;99.90;;;;;;4937531;28;20475;-78
2023/06/17 08:52:42;;;;;;;11.50;7.30;;;20.40;99.90;;;;;;4954908;28;20411;-78
2023/06/17 08:55:08;;;;;;;8.75;6.00;;;20.40;99.90;;;;;;4954633;28;20063;-79
2023/06/17 08:57:35;;;;;;;10.85;7.05;;;20.60;99.90;;;;;;4954702;28;20023;-78
2023/06/17 09:00:01;;;;;;;9.93;6.20;;;20.50;99.90;;;;;;4954946;28;20039;-78
2023/06/17 09:02:28;;;;;;;12.20;5.88;;;20.50;99.90;;;;;;4954654;28;20027;-76
2023/06/17 09:04:54;;;;;;;10.10;6.43;;;20.80;99.90;;;;;;4954763;28;20035;-76
2023/06/17 09:07:21;;;;;;;11.63;6.57;;;20.80;99.90;;;;;;4937102;28;20031;-78
2023/06/17 09:09:52;;;;;;;10.75;6.50;;;20.90;99.90;;;;;;4954354;28;20039;-78
2023/06/17 09:12:18;;;;;;;14.85;6.13;;;20.80;99.90;;;;;;4937238;29;20506;-79
2023/06/17 09:14:44;;;;;;;11.57;7.03;;;20.80;99.90;;;;;;4954680;28;20028;-78
2023/06/17 09:17:23;;;;;;;10.02;5.53;;;21.00;99.90;;;;;;4954622;28;20031;-78
2023/06/17 09:19:49;;;;;;;9.70;6.57;;;21.00;99.90;;;;;;4954110;28;20047;-77
2023/06/17 09:22:17;;;;;;;11.15;6.28;;;21.10;99.90;;;;;;4954337;29;20158;-77
2023/06/17 09:24:43;;;;;;;9.73;6.47;;;21.10;99.90;;;;;;4954106;28;20118;-78
2023/06/17 09:27:20;;;;;;;12.48;6.80;;;21.30;99.90;;;;;;4954157;28;20106;-76
2023/06/17 09:29:48;;;;;;;16.85;7.43;;;21.30;99.90;;;;;;4954123;28;20066;-78
2023/06/17 09:32:14;;;;;;;12.07;6.55;;;21.30;99.90;;;;;;4954128;28;20020;-77
2023/06/17 09:34:48;;;;;;;9.20;5.97;;;21.30;99.90;;;;;;4953962;28;20113;-76
2023/06/17 09:37:15;;;;;;;9.27;5.50;;;21.50;99.90;;;;;;4953963;28;20042;-78
2023/06/17 09:39:45;;;;;;;11.18;6.05;;;21.40;99.90;;;;;;4936986;29;20051;-77
2023/06/17 09:42:12;;;;;;;10.25;6.00;;;21.40;99.90;;;;;;4953324;28;20078;-79
2023/06/17 09:44:39;;;;;;;10.85;6.75;;;21.40;99.90;;;;;;4953944;28;20019;-77
2023/06/17 09:47:06;;;;;;;12.43;5.95;;;21.40;99.90;;;;;;4939539;28;20032;-78
2023/06/17 09:49:33;;;;;;;14.77;6.60;;;21.50;99.90;;;;;;4947266;28;20027;-76
2023/06/17 09:52:02;;;;;;;10.55;5.78;;;21.60;99.90;;;;;;4954199;28;20058;-78
2023/06/17 09:54:31;;;;;;;13.27;6.72;;;21.70;99.90;;;;;;4954123;28;20023;-79
2023/06/17 09:56:59;;;;;;;8.45;5.38;;;21.70;99.90;;;;;;4951296;28;20059;-77
2023/06/17 09:59:26;;;;;;;8.80;5.43;;;21.70;99.90;;;;;;4934237;29;20036;-77
2023/06/17 10:01:54;;;;;;;11.52;5.25;;;21.60;99.90;;;;;;4952507;28;20035;-76
2023/06/17 10:04:21;;;;;;;11.98;6.40;;;21.70;99.90;;;;;;4953945;28;20023;-77
2023/06/17 10:06:50;;;;;;;9.48;5.95;;;21.70;99.90;;;;;;4953505;28;20038;-77
2023/06/17 10:09:16;;;;;;;11.82;5.70;;;21.70;99.90;;;;;;4953910;28;20121;-77
2023/06/17 10:11:45;;;;;;;9.88;5.45;;;21.70;99.90;;;;;;4953227;29;20566;-80
2023/06/17 10:14:17;;;;;;;13.82;5.80;;;21.70;99.90;;;;;;4953933;28;20035;-79
2023/06/17 10:16:47;;;;;;;9.93;5.88;;;21.80;99.90;;;;;;4953550;29;20383;-79
2023/06/17 10:19:19;;;;;;;9.60;4.60;;;21.80;99.90;;;;;;4953837;28;20038;-80
2023/06/17 10:21:48;;;;;;;8.38;5.55;;;21.90;99.90;;;;;;4953633;28;20082;-79
2023/06/17 10:24:17;;;;;;;9.10;5.45;;;22.00;99.90;;;;;;4953779;28;20019;-79
2023/06/17 10:26:43;;;;;;;9.05;5.38;;;21.90;99.90;;;;;;4953921;28;20063;-77
2023/06/17 10:29:12;;;;;;;8.90;5.18;;;21.90;99.90;;;;;;4954073;28;20385;-76
2023/06/17 10:31:40;;;;;;;8.13;4.82;;;21.80;99.90;;;;;;4953831;28;20023;-77
2023/06/17 10:34:08;;;;;;;9.10;5.03;;;21.90;99.90;;;;;;4953394;28;20028;-78
2023/06/17 10:36:38;;;;;;;9.15;5.10;;;22.00;99.90;;;;;;4953767;28;20098;-77
2023/06/17 10:39:11;;;;;;;8.00;5.45;;;22.00;99.90;;;;;;4955547;28;20104;-78
2023/06/17 10:41:45;;;;;;;9.43;4.60;;;22.00;99.90;;;;;;4956869;28;20054;-77
2023/06/17 10:44:20;;;;;;;8.20;5.28;;;22.10;99.90;;;;;;4957357;28;20374;-78
2023/06/17 10:46:49;;;;;;;10.02;5.00;;;;;;;;;;4957113;28;20035;-77
2023/06/17 10:49:17;;;;;;;10.52;5.72;;;22.30;99.90;;;;;;4957164;28;20027;-76
2023/06/17 10:51:46;;;;;;;7.88;5.45;;;22.40;99.90;;;;;;4957388;28;20015;-78
2023/06/17 10:54:12;;;;;;;8.80;4.88;;;22.50;99.90;;;;;;4956845;28;20399;-81
2023/06/17 10:56:52;;;;;;;7.80;4.55;;;22.40;99.90;;;;;;4957232;28;20085;-79
2023/06/17 10:59:28;;;;;;;8.52;5.53;;;;;;;;;;4956778;28;20055;-77
2023/06/17 11:02:08;;;;;;;9.35;5.00;;;22.50;99.90;;;;;;4956696;29;20390;-78
2023/06/17 11:04:41;;;;;;;9.27;5.65;;;22.60;99.90;;;;;;4956788;28;20023;-79
2023/06/17 11:07:07;;;;;;;10.65;5.40;;;22.70;99.90;;;;;;4956506;28;20035;-77
2023/06/17 11:09:34;;;;;;;8.38;5.32;;;22.80;99.90;;;;;;4956670;29;20114;-78
2023/06/17 11:12:02;;;;;;;8.73;5.35;;;23.00;99.90;;;;;;4956866;28;20040;-79
2023/06/17 11:14:29;;;;;;;9.45;4.78;;;23.30;99.90;;;;;;4956670;28;20034;-75
2023/06/17 11:16:56;;;;;;;12.50;5.63;;;;;;;;;;4956513;28;20121;-79
2023/06/17 11:19:22;;;;;;;9.20;5.20;;;23.40;99.90;;;;;;4956626;28;20036;-79
2023/06/17 11:22:03;;;;;;;12.38;5.32;;;23.50;99.90;;;;;;4956279;28;20047;-78
2023/06/17 11:24:32;;;;;;;9.10;5.05;;;23.50;99.90;;;;;;4956328;29;20507;-76
2023/06/17 11:26:59;;;;;;;6.05;4.28;;;23.40;99.90;;;;;;4956648;28;20145;-78
2023/06/17 11:29:28;;;;;;;9.50;5.53;;;23.60;99.90;;;;;;4956427;28;20055;-79
2023/06/17 11:31:57;;;;;;;6.68;4.40;;;23.60;99.90;;;;;;4956102;28;20031;-79
2023/06/17 11:34:24;;;;;;;9.05;5.38;;;23.80;99.90;;;;;;4956430;28;20027;-78
2023/06/17 11:36:52;;;;;;;8.25;5.00;;;;;;;;;;4956049;28;20464;-78
2023/06/17 11:39:27;;;;;;;7.93;4.40;;;23.70;99.90;;;;;;4956185;28;20496;-79
2023/06/17 11:42:00;;;;;;;11.23;5.25;;;23.80;99.90;;;;;;4956278;28;20031;-79
2023/06/17 11:44:33;;;;;;;7.78;4.40;;;23.90;99.90;;;;;;4956198;28;20417;-79
2023/06/17 11:47:04;;;;;;;9.43;4.82;;;23.90;99.90;;;;;;4956045;28;20035;-77
2023/06/17 11:49:30;;;;;;;8.68;5.28;;;24.20;99.90;;;;;;4956021;28;20023;-80
2023/06/17 11:52:01;;;;;;;10.95;5.03;;;24.40;99.90;;;;;;4956142;28;20460;-78
2023/06/17 11:54:29;;;;;;;9.63;5.53;;;24.20;99.90;;;;;;4956036;28;20361;-78
2023/06/17 11:56:55;;;;;;;9.23;5.78;;;24.40;99.90;;;;;;4956195;28;20451;-78
2023/06/17 11:59:22;;;;;;;7.18;5.13;;;24.40;99.90;;;;;;4955841;28;20042;-79
2023/06/17 12:01:47;;;;;;;11.95;5.55;;;24.30;99.90;;;;;;4955459;28;20122;-78
2023/06/17 12:04:14;;;;;;;12.35;5.25;;;24.00;99.90;;;;;;4956199;28;20138;-79
2023/06/17 12:06:43;;;;;;;9.15;5.55;;;23.80;99.90;;;;;;4955596;28;20038;-78
2023/06/17 12:09:10;;;;;;;8.77;4.75;;;23.90;99.90;;;;;;4955916;28;20050;-79
2023/06/17 12:11:39;;;;;;;8.88;5.03;;;24.20;99.90;;;;;;4955178;29;20483;-79
2023/06/17 12:14:10;;;;;;;12.40;4.82;;;24.30;99.90;;;;;;4955769;28;20031;-78
2023/06/17 12:16:38;;;;;;;10.53;5.10;;;24.60;99.90;;;;;;4955266;28;20034;-79
2023/06/17 12:19:07;;;;;;;8.43;5.45;;;24.50;99.90;;;;;;4955637;28;20106;-78
2023/06/17 12:21:35;;;;;;;8.50;5.18;;;24.30;99.90;;;;;;4955314;28;20188;-79
2023/06/17 12:24:02;;;;;;;9.75;5.45;;;24.20;99.90;;;;;;4955552;29;20030;-78
2023/06/17 12:26:29;;;;;;;8.55;5.03;;;24.50;99.90;;;;;;4955658;28;20031;-79
2023/06/17 12:28:55;;;;;;;7.90;5.28;;;24.10;99.90;;;;;;4955205;28;20023;-78
2023/06/17 12:31:22;;;;;;;7.30;4.95;;;24.30;99.90;;;;;;4955294;28;20027;-78
2023/06/17 12:33:48;;;;;;;6.78;4.75;;;24.40;99.90;;;;;;4955264;28;20122;-78
2023/06/17 12:36:19;;;;;;;7.07;5.25;;;24.50;99.90;;;;;;4955119;28;20024;-77
2023/06/17 12:38:46;;;;;;;8.18;5.38;;;24.40;99.90;;;;;;4944434;28;20441;-79